createdAt,value
2019-02-05T00:00:43.298Z,0.00
2019-02-05T00:01:43.259Z,0.00
2019-02-05T00:02:43.235Z,0.00
2019-02-05T00:03:43.204Z,0.00
2019-02-05T00:04:43.177Z,0.00
2019-02-05T00:05:43.158Z,0.00
2019-02-05T00:06:43.119Z,0.00
2019-02-05T00:07:43.091Z,0.00
2019-02-05T00:08:43.063Z,0.00
2019-02-05T00:09:43.059Z,0.00
2019-02-05T00:10:43.006Z,0.00
2019-02-05T00:11:42.984Z,0.00
2019-02-05T00:12:42.955Z,0.00
2019-02-05T00:13:42.924Z,0.00
2019-02-05T00:14:42.894Z,0.00
2019-02-05T00:15:42.868Z,0.00
2019-02-05T00:16:42.840Z,0.00
2019-02-05T00:17:42.813Z,0.00
2019-02-05T00:18:42.783Z,0.00
2019-02-05T00:19:42.759Z,0.00
2019-02-05T00:20:42.729Z,0.00
2019-02-05T00:21:42.700Z,0.00
2019-02-05T00:22:42.672Z,0.00
2019-02-05T00:23:42.646Z,0.00
2019-02-05T00:24:42.622Z,0.00
2019-02-05T00:25:42.591Z,0.00
2019-02-05T00:26:42.561Z,0.00
2019-02-05T00:27:42.532Z,0.00
2019-02-05T00:28:42.508Z,0.00
2019-02-05T00:29:42.477Z,0.00
2019-02-05T00:30:42.447Z,0.00
2019-02-05T00:31:42.420Z,0.00
2019-02-05T00:32:42.392Z,0.00
2019-02-05T00:33:42.366Z,0.00
2019-02-05T00:34:42.335Z,0.00
2019-02-05T00:35:42.337Z,0.00
2019-02-05T00:36:42.280Z,0.00
2019-02-05T00:37:42.253Z,0.00
2019-02-05T00:38:42.222Z,0.00
2019-02-05T00:39:42.194Z,0.00
2019-02-05T00:40:42.166Z,0.00
2019-02-05T00:41:42.139Z,0.00
2019-02-05T00:42:42.113Z,0.00
2019-02-05T00:43:42.083Z,0.00
2019-02-05T00:44:42.053Z,0.00
2019-02-05T00:45:42.027Z,0.00
2019-02-05T00:46:41.998Z,0.00
2019-02-05T00:47:41.971Z,0.00
2019-02-05T00:48:41.942Z,0.00
2019-02-05T00:49:41.914Z,0.00
2019-02-05T00:50:41.885Z,0.00
2019-02-05T00:51:41.872Z,0.00
2019-02-05T00:52:41.830Z,0.00
2019-02-05T00:53:41.801Z,0.00
2019-02-05T00:54:41.771Z,0.00
2019-02-05T00:55:41.745Z,0.00
2019-02-05T00:56:41.718Z,0.00
2019-02-05T00:57:41.695Z,0.00
2019-02-05T00:58:41.660Z,0.00
2019-02-05T00:59:41.633Z,0.00
2019-02-05T01:00:41.606Z,0.00
2019-02-05T01:01:41.578Z,0.00
2019-02-05T01:02:41.548Z,0.00
2019-02-05T01:03:41.520Z,0.00
2019-02-05T01:04:41.496Z,0.00
2019-02-05T01:05:41.464Z,0.00
2019-02-05T01:06:41.435Z,0.00
2019-02-05T01:07:41.412Z,0.00
2019-02-05T01:08:41.378Z,0.00
2019-02-05T01:09:41.352Z,0.00
2019-02-05T01:10:41.322Z,0.00
2019-02-05T01:11:41.300Z,0.00
2019-02-05T01:12:41.271Z,0.00
2019-02-05T01:13:41.240Z,0.00
2019-02-05T01:14:41.212Z,0.00
2019-02-05T01:15:41.217Z,0.00
2019-02-05T01:16:41.156Z,0.00
2019-02-05T01:17:41.125Z,0.00
2019-02-05T01:18:41.098Z,0.00
2019-02-05T01:19:41.138Z,0.00
2019-02-05T01:20:41.041Z,0.00
2019-02-05T01:21:41.016Z,0.00
2019-02-05T01:22:40.985Z,0.00
2019-02-05T01:23:40.960Z,0.00
2019-02-05T01:24:40.929Z,0.00
2019-02-05T01:25:40.936Z,0.00
2019-02-05T01:26:40.874Z,0.00
2019-02-05T01:27:40.845Z,0.00
2019-02-05T01:28:40.820Z,0.00
2019-02-05T01:29:40.789Z,0.00
2019-02-05T01:30:40.765Z,0.00
2019-02-05T01:31:40.732Z,0.00
2019-02-05T01:32:40.703Z,0.00
2019-02-05T01:33:40.678Z,0.00
2019-02-05T01:34:40.649Z,0.00
2019-02-05T01:35:40.620Z,0.00
2019-02-05T01:36:40.669Z,0.00
2019-02-05T01:37:40.564Z,0.00
2019-02-05T01:38:40.538Z,0.00
2019-02-05T01:39:40.507Z,0.00
2019-02-05T01:40:40.479Z,0.00
2019-02-05T01:41:40.453Z,0.00
2019-02-05T01:42:40.424Z,0.00
2019-02-05T01:43:40.405Z,0.00
2019-02-05T01:44:40.370Z,0.00
2019-02-05T01:45:40.339Z,0.00
2019-02-05T01:46:40.312Z,0.00
2019-02-05T01:47:40.291Z,0.00
2019-02-05T01:48:40.257Z,0.00
2019-02-05T01:49:40.227Z,0.00
2019-02-05T01:50:40.203Z,0.00
2019-02-05T01:51:40.171Z,0.00
2019-02-05T01:52:40.141Z,0.00
2019-02-05T01:53:40.114Z,0.00
2019-02-05T01:54:40.096Z,0.00
2019-02-05T01:55:40.060Z,0.00
2019-02-05T01:56:41.009Z,0.00
2019-02-05T01:57:40.098Z,0.00
2019-02-05T01:58:39.973Z,0.00
2019-02-05T01:59:39.943Z,0.00
2019-02-05T02:00:39.917Z,0.00
2019-02-05T02:01:39.889Z,0.00
2019-02-05T02:02:39.859Z,0.00
2019-02-05T02:03:39.831Z,0.00
2019-02-05T02:04:39.803Z,0.00
2019-02-05T02:05:39.778Z,0.00
2019-02-05T02:06:39.750Z,0.00
2019-02-05T02:07:39.719Z,0.00
2019-02-05T02:08:39.704Z,0.00
2019-02-05T02:09:39.662Z,0.00
2019-02-05T02:10:39.637Z,0.00
2019-02-05T02:11:39.610Z,0.00
2019-02-05T02:12:39.583Z,0.00
2019-02-05T02:13:39.553Z,0.00
2019-02-05T02:14:39.548Z,0.00
2019-02-05T02:15:39.497Z,0.00
2019-02-05T02:16:39.466Z,0.00
2019-02-05T02:17:39.440Z,0.00
2019-02-05T02:18:39.415Z,0.00
2019-02-05T02:19:39.382Z,0.00
2019-02-05T02:20:39.355Z,0.00
2019-02-05T02:21:39.327Z,0.00
2019-02-05T02:22:39.298Z,0.00
2019-02-05T02:23:39.272Z,0.00
2019-02-05T02:24:39.243Z,0.00
2019-02-05T02:25:39.213Z,0.00
2019-02-05T02:26:39.187Z,0.00
2019-02-05T02:27:39.157Z,0.00
2019-02-05T02:28:39.129Z,0.00
2019-02-05T02:29:39.109Z,0.00
2019-02-05T02:30:39.072Z,0.00
2019-02-05T02:31:39.052Z,0.00
2019-02-05T02:32:39.017Z,0.00
2019-02-05T02:33:39.041Z,0.00
2019-02-05T02:34:38.960Z,0.00
2019-02-05T02:35:38.933Z,0.00
2019-02-05T02:36:38.906Z,0.00
2019-02-05T02:37:38.877Z,0.00
2019-02-05T02:38:38.938Z,0.00
2019-02-05T02:39:38.828Z,0.00
2019-02-05T02:40:38.795Z,0.00
2019-02-05T02:41:38.765Z,0.00
2019-02-05T02:42:38.750Z,0.00
2019-02-05T02:43:38.709Z,0.00
2019-02-05T02:44:38.679Z,0.00
2019-02-05T02:45:38.654Z,0.00
2019-02-05T02:46:38.627Z,0.00
2019-02-05T02:47:38.597Z,0.00
2019-02-05T02:48:38.566Z,0.00
2019-02-05T02:49:38.542Z,0.00
2019-02-05T02:50:38.516Z,0.00
2019-02-05T02:51:38.483Z,0.00
2019-02-05T02:52:38.462Z,0.00
2019-02-05T02:53:38.432Z,0.00
2019-02-05T02:54:38.398Z,0.00
2019-02-05T02:55:38.374Z,0.00
2019-02-05T02:56:38.343Z,0.00
2019-02-05T02:57:38.315Z,0.00
2019-02-05T02:58:38.287Z,0.00
2019-02-05T02:59:38.267Z,0.00
2019-02-05T03:00:38.229Z,0.00
2019-02-05T03:01:38.202Z,0.00
2019-02-05T03:02:38.177Z,0.00
2019-02-05T03:03:38.146Z,0.00
2019-02-05T03:04:38.117Z,0.00
2019-02-05T03:05:38.093Z,0.00
2019-02-05T03:06:38.064Z,0.00
2019-02-05T03:07:38.033Z,0.00
2019-02-05T03:08:38.005Z,0.00
2019-02-05T03:09:37.978Z,0.00
2019-02-05T03:10:38.046Z,0.00
2019-02-05T03:11:37.921Z,0.00
2019-02-05T03:12:37.892Z,0.00
2019-02-05T03:13:37.868Z,0.00
2019-02-05T03:14:37.834Z,0.00
2019-02-05T03:15:37.808Z,0.00
2019-02-05T03:16:37.780Z,0.00
2019-02-05T03:17:37.753Z,0.00
2019-02-05T03:18:37.727Z,0.00
2019-02-05T03:19:37.696Z,0.00
2019-02-05T03:20:37.672Z,0.00
2019-02-05T03:21:37.639Z,0.00
2019-02-05T03:22:37.612Z,0.00
2019-02-05T03:23:37.582Z,0.00
2019-02-05T03:24:37.555Z,0.00
2019-02-05T03:25:37.529Z,0.00
2019-02-05T03:26:37.501Z,0.00
2019-02-05T03:27:37.471Z,0.00
2019-02-05T03:28:37.444Z,0.00
2019-02-05T03:29:37.415Z,0.00
2019-02-05T03:30:37.393Z,0.00
2019-02-05T03:31:37.361Z,0.00
2019-02-05T03:32:37.331Z,0.00
2019-02-05T03:33:37.304Z,0.00
2019-02-05T03:34:37.286Z,0.00
2019-02-05T03:35:37.248Z,0.00
2019-02-05T03:36:37.219Z,0.00
2019-02-05T03:37:37.190Z,0.00
2019-02-05T03:38:37.176Z,0.00
2019-02-05T03:39:37.134Z,0.00
2019-02-05T03:40:37.108Z,0.00
2019-02-05T03:41:37.080Z,0.00
2019-02-05T03:42:37.050Z,0.00
2019-02-05T03:43:37.023Z,0.00
2019-02-05T03:44:36.997Z,0.00
2019-02-05T03:45:36.966Z,0.00
2019-02-05T03:46:36.942Z,0.00
2019-02-05T03:47:36.911Z,0.00
2019-02-05T03:48:36.882Z,0.00
2019-02-05T03:49:36.861Z,0.00
2019-02-05T03:50:36.829Z,0.00
2019-02-05T03:51:36.797Z,0.00
2019-02-05T03:52:36.775Z,0.00
2019-02-05T03:53:36.743Z,0.00
2019-02-05T03:54:36.721Z,0.00
2019-02-05T03:55:36.689Z,0.00
2019-02-05T03:56:36.658Z,0.00
2019-02-05T03:57:36.631Z,0.00
2019-02-05T03:58:36.600Z,0.00
2019-02-05T03:59:36.575Z,0.00
2019-02-05T04:00:36.554Z,0.00
2019-02-05T04:01:36.520Z,0.00
2019-02-05T04:02:36.489Z,0.00
2019-02-05T04:03:36.460Z,0.00
2019-02-05T04:04:36.436Z,0.00
2019-02-05T04:05:36.407Z,0.00
2019-02-05T04:06:36.394Z,0.00
2019-02-05T04:07:36.350Z,0.00
2019-02-05T04:08:36.321Z,0.00
2019-02-05T04:09:36.294Z,0.00
2019-02-05T04:10:36.264Z,0.00
2019-02-05T04:11:36.240Z,0.00
2019-02-05T04:12:36.209Z,0.00
2019-02-05T04:13:36.181Z,0.00
2019-02-05T04:14:36.151Z,0.00
2019-02-05T04:15:36.125Z,0.00
2019-02-05T04:16:36.117Z,0.00
2019-02-05T04:17:36.069Z,0.00
2019-02-05T04:18:36.041Z,0.00
2019-02-05T04:19:36.014Z,0.00
2019-02-05T04:20:35.985Z,0.00
2019-02-05T04:21:35.958Z,0.00
2019-02-05T04:22:35.930Z,0.00
2019-02-05T04:23:35.900Z,0.00
2019-02-05T04:24:35.875Z,0.00
2019-02-05T04:25:35.847Z,0.00
2019-02-05T04:26:35.820Z,0.00
2019-02-05T04:27:43.763Z,0.00
2019-02-05T04:28:35.768Z,0.00
2019-02-05T04:29:35.737Z,0.00
2019-02-05T04:30:35.710Z,0.00
2019-02-05T04:31:35.679Z,0.00
2019-02-05T04:32:35.653Z,0.00
2019-02-05T04:33:35.722Z,0.00
2019-02-05T04:34:35.742Z,0.00
2019-02-05T04:35:35.570Z,0.00
2019-02-05T04:36:35.539Z,0.00
2019-02-05T04:37:35.517Z,0.00
2019-02-05T04:38:35.487Z,0.00
2019-02-05T04:39:35.456Z,0.00
2019-02-05T04:40:35.436Z,0.00
2019-02-05T04:41:35.405Z,0.00
2019-02-05T04:42:35.388Z,0.00
2019-02-05T04:43:35.345Z,0.00
2019-02-05T04:44:35.321Z,0.00
2019-02-05T04:45:35.290Z,0.00
2019-02-05T04:46:35.262Z,0.00
2019-02-05T04:47:35.235Z,0.00
2019-02-05T04:48:35.205Z,0.00
2019-02-05T04:49:35.178Z,0.00
2019-02-05T04:50:35.155Z,0.00
2019-02-05T04:51:35.120Z,0.00
2019-02-05T04:52:35.099Z,0.00
2019-02-05T04:53:35.070Z,0.00
2019-02-05T04:54:35.040Z,0.00
2019-02-05T04:55:35.009Z,0.00
2019-02-05T04:56:35.014Z,0.00
2019-02-05T04:57:34.954Z,0.00
2019-02-05T04:58:34.928Z,0.00
2019-02-05T04:59:34.899Z,0.00
2019-02-05T05:00:34.873Z,0.00
2019-02-05T05:01:34.846Z,0.00
2019-02-05T05:02:34.817Z,0.00
2019-02-05T05:03:34.788Z,0.00
2019-02-05T05:04:34.757Z,0.00
2019-02-05T05:05:34.735Z,0.00
2019-02-05T05:06:34.704Z,0.00
2019-02-05T05:07:34.675Z,0.00
2019-02-05T05:08:34.649Z,0.00
2019-02-05T05:09:34.622Z,0.00
2019-02-05T05:10:34.590Z,0.00
2019-02-05T05:11:34.569Z,0.00
2019-02-05T05:12:34.540Z,0.00
2019-02-05T05:13:34.506Z,0.00
2019-02-05T05:14:34.480Z,0.00
2019-02-05T05:15:34.451Z,0.00
2019-02-05T05:16:34.423Z,0.00
2019-02-05T05:17:34.397Z,0.00
2019-02-05T05:18:34.379Z,0.00
2019-02-05T05:19:34.345Z,0.00
2019-02-05T05:20:34.309Z,0.00
2019-02-05T05:21:34.282Z,0.00
2019-02-05T05:22:34.254Z,0.00
2019-02-05T05:23:34.226Z,0.00
2019-02-05T05:24:34.199Z,0.00
2019-02-05T05:25:34.173Z,0.00
2019-02-05T05:26:34.145Z,0.00
2019-02-05T05:27:34.117Z,0.00
2019-02-05T05:28:34.089Z,0.00
2019-02-05T05:29:34.075Z,0.00
2019-02-05T05:30:34.033Z,0.00
2019-02-05T05:31:34.002Z,0.00
2019-02-05T05:32:33.973Z,0.00
2019-02-05T05:33:34.131Z,0.00
2019-02-05T05:34:33.917Z,0.00
2019-02-05T05:35:41.817Z,0.00
2019-02-05T05:36:33.867Z,0.00
2019-02-05T05:37:33.840Z,0.00
2019-02-05T05:38:33.805Z,0.00
2019-02-05T05:39:33.777Z,0.00
2019-02-05T05:40:33.749Z,0.00
2019-02-05T05:41:33.724Z,0.00
2019-02-05T05:42:33.691Z,0.00
2019-02-05T05:43:33.667Z,0.00
2019-02-05T05:44:33.639Z,0.00
2019-02-05T05:45:33.609Z,0.00
2019-02-05T05:46:33.578Z,0.00
2019-02-05T05:47:33.579Z,0.00
2019-02-05T05:48:33.523Z,0.00
2019-02-05T05:49:33.496Z,0.00
2019-02-05T05:50:33.466Z,0.00
2019-02-05T05:51:33.439Z,0.00
2019-02-05T05:52:33.412Z,0.00
2019-02-05T05:53:33.388Z,0.00
2019-02-05T05:54:33.355Z,0.00
2019-02-05T05:55:33.327Z,0.00
2019-02-05T05:56:33.298Z,0.00
2019-02-05T05:57:33.271Z,0.00
2019-02-05T05:58:33.243Z,0.00
2019-02-05T05:59:33.228Z,0.00
2019-02-05T06:00:33.189Z,0.00
2019-02-05T06:01:33.162Z,0.00
2019-02-05T06:02:33.131Z,0.00
2019-02-05T06:03:33.105Z,0.00
2019-02-05T06:04:33.097Z,0.00
2019-02-05T06:05:33.062Z,0.00
2019-02-05T06:06:33.020Z,0.00
2019-02-05T06:07:32.992Z,0.00
2019-02-05T06:08:32.963Z,0.00
2019-02-05T06:09:32.934Z,0.00
2019-02-05T06:10:32.904Z,0.00
2019-02-05T06:11:32.877Z,0.00
2019-02-05T06:12:32.886Z,0.00
2019-02-05T06:13:32.875Z,0.00
2019-02-05T06:14:32.814Z,0.00
2019-02-05T06:15:35.705Z,0.00
2019-02-05T06:16:32.786Z,0.00
2019-02-05T06:17:32.710Z,0.00
2019-02-05T06:18:32.687Z,0.00
2019-02-05T06:19:32.653Z,0.00
2019-02-05T06:20:32.625Z,0.00
2019-02-05T06:21:32.602Z,0.00
2019-02-05T06:22:32.569Z,0.00
2019-02-05T06:23:32.543Z,0.00
2019-02-05T06:24:32.512Z,0.00
2019-02-05T06:25:32.489Z,0.00
2019-02-05T06:26:32.458Z,0.00
2019-02-05T06:27:32.430Z,0.00
2019-02-05T06:28:34.757Z,0.00
2019-02-05T06:29:32.375Z,0.00
2019-02-05T06:30:32.346Z,0.00
2019-02-05T06:31:32.315Z,0.00
2019-02-05T06:32:32.290Z,0.00
2019-02-05T06:33:32.262Z,0.00
2019-02-05T06:34:32.233Z,0.00
2019-02-05T06:35:32.205Z,0.00
2019-02-05T06:36:32.178Z,0.00
2019-02-05T06:37:32.157Z,0.00
2019-02-05T06:38:32.121Z,0.00
2019-02-05T06:39:32.101Z,0.00
2019-02-05T06:40:32.066Z,0.00
2019-02-05T06:41:32.038Z,0.00
2019-02-05T06:42:32.009Z,0.00
2019-02-05T06:43:31.982Z,0.00
2019-02-05T06:44:31.959Z,0.00
2019-02-05T06:45:31.927Z,0.00
2019-02-05T06:46:31.899Z,0.00
2019-02-05T06:47:31.870Z,0.00
2019-02-05T06:48:31.844Z,0.00
2019-02-05T06:49:31.817Z,0.00
2019-02-05T06:50:31.793Z,0.00
2019-02-05T06:51:31.760Z,0.00
2019-02-05T06:52:31.731Z,0.00
2019-02-05T06:53:31.704Z,0.00
2019-02-05T06:54:31.677Z,0.00
2019-02-05T06:55:31.646Z,0.00
2019-02-05T06:56:31.622Z,0.00
2019-02-05T06:57:31.595Z,0.00
2019-02-05T06:58:31.563Z,0.00
2019-02-05T06:59:31.538Z,0.00
2019-02-05T07:00:31.511Z,0.00
2019-02-05T07:01:31.483Z,0.00
2019-02-05T07:02:31.454Z,0.00
2019-02-05T07:03:31.427Z,0.00
2019-02-05T07:04:31.397Z,0.00
2019-02-05T07:05:31.372Z,0.00
2019-02-05T07:06:31.346Z,0.00
2019-02-05T07:07:31.313Z,0.00
2019-02-05T07:08:31.287Z,0.00
2019-02-05T07:09:31.261Z,0.00
2019-02-05T07:10:31.229Z,0.00
2019-02-05T07:11:31.203Z,0.00
2019-02-05T07:12:31.182Z,0.00
2019-02-05T07:13:31.152Z,0.00
2019-02-05T07:14:31.119Z,0.00
2019-02-05T07:15:31.092Z,0.00
2019-02-05T07:16:31.067Z,0.00
2019-02-05T07:17:31.037Z,0.00
2019-02-05T07:18:31.008Z,0.00
2019-02-05T07:19:30.979Z,0.00
2019-02-05T07:20:30.952Z,0.00
2019-02-05T07:21:30.930Z,0.00
2019-02-05T07:22:30.900Z,0.00
2019-02-05T07:23:30.873Z,0.00
2019-02-05T07:24:30.850Z,0.00
2019-02-05T07:25:30.814Z,0.00
2019-02-05T07:26:30.785Z,0.00
2019-02-05T07:27:30.758Z,0.00
2019-02-05T07:28:30.737Z,0.00
2019-02-05T07:29:30.704Z,0.00
2019-02-05T07:30:30.672Z,0.00
2019-02-05T07:31:30.656Z,0.00
2019-02-05T07:32:30.621Z,0.00
2019-02-05T07:33:30.594Z,0.00
2019-02-05T07:34:30.567Z,0.00
2019-02-05T07:35:30.534Z,0.00
2019-02-05T07:36:30.507Z,0.00
2019-02-05T07:37:30.485Z,0.00
2019-02-05T07:38:30.451Z,0.00
2019-02-05T07:39:30.427Z,0.00
2019-02-05T07:40:30.395Z,0.00
2019-02-05T07:41:30.369Z,0.00
2019-02-05T07:42:30.339Z,0.00
2019-02-05T07:43:30.312Z,0.00
2019-02-05T07:44:30.286Z,0.00
2019-02-05T07:45:30.258Z,0.00
2019-02-05T07:46:30.228Z,0.00
2019-02-05T07:47:30.201Z,0.00
2019-02-05T07:48:30.662Z,0.00
2019-02-05T07:49:30.147Z,0.00
2019-02-05T07:50:30.120Z,0.00
2019-02-05T07:51:30.089Z,5.63
2019-02-05T07:52:30.179Z,0.00
2019-02-05T07:53:33.077Z,5.63
2019-02-05T07:54:30.111Z,5.63
2019-02-05T07:55:29.981Z,5.63
2019-02-05T07:56:29.953Z,5.63
2019-02-05T07:57:29.923Z,5.63
2019-02-05T07:58:29.895Z,5.63
2019-02-05T07:59:29.869Z,5.63
2019-02-05T08:00:29.839Z,5.63
2019-02-05T08:01:29.815Z,5.63
2019-02-05T08:02:29.783Z,5.63
2019-02-05T08:03:29.757Z,5.63
2019-02-05T08:04:29.761Z,5.63
2019-02-05T08:05:29.714Z,5.63
2019-02-05T08:06:29.672Z,5.63
2019-02-05T08:07:29.645Z,5.63
2019-02-05T08:08:29.617Z,5.63
2019-02-05T08:09:29.590Z,5.63
2019-02-05T08:10:29.560Z,5.63
2019-02-05T08:11:29.536Z,5.63
2019-02-05T08:12:29.505Z,5.63
2019-02-05T08:13:29.478Z,5.63
2019-02-05T08:14:29.451Z,5.63
2019-02-05T08:15:29.422Z,5.63
2019-02-05T08:16:29.395Z,5.63
2019-02-05T08:17:29.369Z,5.63
2019-02-05T08:18:29.339Z,5.63
2019-02-05T08:19:29.312Z,5.63
2019-02-05T08:20:29.285Z,5.63
2019-02-05T08:21:29.256Z,5.63
2019-02-05T08:22:32.166Z,5.63
2019-02-05T08:23:29.201Z,5.63
2019-02-05T08:24:29.172Z,5.63
2019-02-05T08:25:29.146Z,5.63
2019-02-05T08:26:29.117Z,5.63
2019-02-05T08:27:29.092Z,5.63
2019-02-05T08:28:40.412Z,11.25
2019-02-05T08:29:29.036Z,11.25
2019-02-05T08:30:29.009Z,5.63
2019-02-05T08:31:28.981Z,11.25
2019-02-05T08:32:28.962Z,11.25
2019-02-05T08:33:28.925Z,11.25
2019-02-05T08:34:28.896Z,5.63
2019-02-05T08:35:28.868Z,5.63
2019-02-05T08:36:28.840Z,11.25
2019-02-05T08:37:28.816Z,11.25
2019-02-05T08:38:28.787Z,11.25
2019-02-05T08:39:28.756Z,11.25
2019-02-05T08:40:28.730Z,11.25
2019-02-05T08:41:28.702Z,11.25
2019-02-05T08:42:28.675Z,11.25
2019-02-05T08:43:28.648Z,11.25
2019-02-05T08:44:28.620Z,11.25
2019-02-05T08:45:28.594Z,11.25
2019-02-05T08:46:28.564Z,5.63
2019-02-05T08:47:28.538Z,11.25
2019-02-05T08:48:28.510Z,11.25
2019-02-05T08:49:28.500Z,11.25
2019-02-05T08:50:28.515Z,11.25
2019-02-05T08:51:28.426Z,11.25
2019-02-05T08:52:28.400Z,11.25
2019-02-05T08:53:28.429Z,11.25
2019-02-05T08:54:28.345Z,11.25
2019-02-05T08:55:30.756Z,11.25
2019-02-05T08:56:28.290Z,11.25
2019-02-05T08:57:28.262Z,11.25
2019-02-05T08:58:31.284Z,11.25
2019-02-05T08:59:28.209Z,11.25
2019-02-05T09:00:28.183Z,11.25
2019-02-05T09:01:28.156Z,11.25
2019-02-05T09:02:28.125Z,11.25
2019-02-05T09:03:28.102Z,11.25
2019-02-05T09:04:28.072Z,11.25
2019-02-05T09:05:28.042Z,11.25
2019-02-05T09:06:28.024Z,11.25
2019-02-05T09:07:27.988Z,11.25
2019-02-05T09:08:27.961Z,11.25
2019-02-05T09:09:27.934Z,11.25
2019-02-05T09:10:27.906Z,11.25
2019-02-05T09:11:27.877Z,11.25
2019-02-05T09:12:27.852Z,11.25
2019-02-05T09:13:27.829Z,16.88
2019-02-05T09:14:27.796Z,16.88
2019-02-05T09:15:29.439Z,11.25
2019-02-05T09:16:27.744Z,16.88
2019-02-05T09:17:27.716Z,11.25
2019-02-05T09:18:27.688Z,11.25
2019-02-05T09:19:27.661Z,11.25
2019-02-05T09:20:27.633Z,11.25
2019-02-05T09:21:27.611Z,16.88
2019-02-05T09:22:27.612Z,11.25
2019-02-05T09:23:27.553Z,11.25
2019-02-05T09:24:27.524Z,11.25
2019-02-05T09:25:27.506Z,11.25
2019-02-05T09:26:27.474Z,11.25
2019-02-05T09:27:27.447Z,16.88
2019-02-05T09:28:27.417Z,11.25
2019-02-05T09:29:33.438Z,11.25
2019-02-05T09:30:27.370Z,16.88
2019-02-05T09:31:27.335Z,16.88
2019-02-05T09:32:27.307Z,16.88
2019-02-05T09:33:27.281Z,16.88
2019-02-05T09:34:27.255Z,16.88
2019-02-05T09:35:27.228Z,16.88
2019-02-05T09:36:27.205Z,16.88
2019-02-05T09:37:27.175Z,16.88
2019-02-05T09:38:27.145Z,16.88
2019-02-05T09:39:27.120Z,16.88
2019-02-05T09:40:27.094Z,16.88
2019-02-05T09:41:27.064Z,16.88
2019-02-05T09:42:27.037Z,16.88
2019-02-05T09:43:27.011Z,16.88
2019-02-05T09:44:27.004Z,16.88
2019-02-05T09:45:26.959Z,16.88
2019-02-05T09:46:26.933Z,16.88
2019-02-05T09:47:26.903Z,16.88
2019-02-05T09:48:26.877Z,16.88
2019-02-05T09:49:26.849Z,16.88
2019-02-05T09:50:26.822Z,22.50
2019-02-05T09:51:26.794Z,22.50
2019-02-05T09:52:26.767Z,22.50
2019-02-05T09:53:26.740Z,22.50
2019-02-05T09:54:26.714Z,16.88
2019-02-05T09:55:26.687Z,16.88
2019-02-05T09:56:26.658Z,22.50
2019-02-05T09:57:26.632Z,28.13
2019-02-05T09:58:26.604Z,33.75
2019-02-05T09:59:26.578Z,33.75
2019-02-05T10:00:26.550Z,33.75
2019-02-05T10:01:26.523Z,28.13
2019-02-05T10:02:26.501Z,33.75
2019-02-05T10:03:26.471Z,33.75
2019-02-05T10:04:26.442Z,33.75
2019-02-05T10:05:26.414Z,33.75
2019-02-05T10:06:26.388Z,33.75
2019-02-05T10:07:26.471Z,33.75
2019-02-05T10:08:26.335Z,33.75
2019-02-05T10:09:26.308Z,33.75
2019-02-05T10:10:26.281Z,39.38
2019-02-05T10:11:26.252Z,33.75
2019-02-05T10:12:26.224Z,33.75
2019-02-05T10:13:26.199Z,33.75
2019-02-05T10:14:26.175Z,33.75
2019-02-05T10:15:26.142Z,33.75
2019-02-05T10:16:26.190Z,33.75
2019-02-05T10:17:26.094Z,33.75
2019-02-05T10:18:26.062Z,33.75
2019-02-05T10:19:26.035Z,39.38
2019-02-05T10:20:26.010Z,39.38
2019-02-05T10:21:25.982Z,45.00
2019-02-05T10:22:25.953Z,33.75
2019-02-05T10:23:25.927Z,33.75
2019-02-05T10:24:25.900Z,33.75
2019-02-05T10:25:25.875Z,28.13
2019-02-05T10:26:25.845Z,28.13
2019-02-05T10:27:25.822Z,33.75
2019-02-05T10:28:25.795Z,33.75
2019-02-05T10:29:25.764Z,33.75
2019-02-05T10:30:25.740Z,33.75
2019-02-05T10:31:25.736Z,28.13
2019-02-05T10:32:25.696Z,28.13
2019-02-05T10:33:25.656Z,28.13
2019-02-05T10:34:33.873Z,33.75
2019-02-05T10:35:25.602Z,33.75
2019-02-05T10:36:25.599Z,33.75
2019-02-05T10:37:25.548Z,33.75
2019-02-05T10:38:25.520Z,28.13
2019-02-05T10:39:25.493Z,28.13
2019-02-05T10:40:25.471Z,33.75
2019-02-05T10:41:25.440Z,33.75
2019-02-05T10:42:25.410Z,33.75
2019-02-05T10:43:25.385Z,33.75
2019-02-05T10:44:25.359Z,33.75
2019-02-05T10:45:25.332Z,28.13
2019-02-05T10:46:25.345Z,28.13
2019-02-05T10:47:25.277Z,28.13
2019-02-05T10:48:25.252Z,28.13
2019-02-05T10:49:25.224Z,28.13
2019-02-05T10:50:25.195Z,33.75
2019-02-05T10:51:25.169Z,33.75
2019-02-05T10:52:25.141Z,33.75
2019-02-05T10:53:25.116Z,33.75
2019-02-05T10:54:25.108Z,33.75
2019-02-05T10:55:25.180Z,28.13
2019-02-05T10:56:25.045Z,28.13
2019-02-05T10:57:25.007Z,22.50
2019-02-05T10:58:24.981Z,22.50
2019-02-05T10:59:24.952Z,28.13
2019-02-05T11:00:24.925Z,22.50
2019-02-05T11:01:24.898Z,22.50
2019-02-05T11:02:24.870Z,22.50
2019-02-05T11:03:24.854Z,22.50
2019-02-05T11:04:24.816Z,22.50
2019-02-05T11:05:24.789Z,28.13
2019-02-05T11:06:24.763Z,28.13
2019-02-05T11:07:24.735Z,28.13
2019-02-05T11:08:24.706Z,28.13
2019-02-05T11:09:24.679Z,28.13
2019-02-05T11:10:24.654Z,22.50
2019-02-05T11:11:24.627Z,22.50
2019-02-05T11:12:24.602Z,22.50
2019-02-05T11:13:24.572Z,22.50
2019-02-05T11:14:24.545Z,22.50
2019-02-05T11:15:24.516Z,28.13
2019-02-05T11:16:24.491Z,28.13
2019-02-05T11:17:24.467Z,28.13
2019-02-05T11:18:24.439Z,28.13
2019-02-05T11:19:24.408Z,28.13
2019-02-05T11:20:24.396Z,28.13
2019-02-05T11:21:24.358Z,28.13
2019-02-05T11:22:24.326Z,33.75
2019-02-05T11:23:24.301Z,33.75
2019-02-05T11:24:24.275Z,28.13
2019-02-05T11:25:24.248Z,28.13
2019-02-05T11:26:24.218Z,28.13
2019-02-05T11:27:24.192Z,33.75
2019-02-05T11:28:24.165Z,33.75
2019-02-05T11:29:24.140Z,33.75
2019-02-05T11:30:24.110Z,33.75
2019-02-05T11:31:24.092Z,28.13
2019-02-05T11:32:24.058Z,28.13
2019-02-05T11:33:24.029Z,28.13
2019-02-05T11:34:24.002Z,28.13
2019-02-05T11:35:23.979Z,28.13
2019-02-05T11:36:23.948Z,28.13
2019-02-05T11:37:23.933Z,28.13
2019-02-05T11:38:23.893Z,28.13
2019-02-05T11:39:23.866Z,28.13
2019-02-05T11:40:23.839Z,28.13
2019-02-05T11:41:23.813Z,28.13
2019-02-05T11:42:23.791Z,28.13
2019-02-05T11:43:23.759Z,33.75
2019-02-05T11:44:23.731Z,28.13
2019-02-05T11:45:23.705Z,33.75
2019-02-05T11:46:23.677Z,33.75
2019-02-05T11:47:23.651Z,33.75
2019-02-05T11:48:23.627Z,33.75
2019-02-05T11:49:23.600Z,33.75
2019-02-05T11:50:23.572Z,39.38
2019-02-05T11:51:23.545Z,33.75
2019-02-05T11:52:23.517Z,39.38
2019-02-05T11:53:23.490Z,33.75
2019-02-05T11:54:23.461Z,33.75
2019-02-05T11:55:23.433Z,33.75
2019-02-05T11:56:23.412Z,33.75
2019-02-05T11:57:25.333Z,33.75
2019-02-05T11:58:23.352Z,33.75
2019-02-05T11:59:23.324Z,33.75
2019-02-05T12:00:32.145Z,33.75
2019-02-05T12:01:23.271Z,33.75
2019-02-05T12:02:23.246Z,28.13
2019-02-05T12:03:23.222Z,33.75
2019-02-05T12:04:23.191Z,33.75
2019-02-05T12:05:23.166Z,33.75
2019-02-05T12:06:23.135Z,28.13
2019-02-05T12:07:23.110Z,28.13
2019-02-05T12:08:23.083Z,28.13
2019-02-05T12:09:23.055Z,28.13
2019-02-05T12:10:23.028Z,28.13
2019-02-05T12:11:23.000Z,28.13
2019-02-05T12:12:22.974Z,28.13
2019-02-05T12:13:22.946Z,28.13
2019-02-05T12:14:22.919Z,28.13
2019-02-05T12:15:22.894Z,28.13
2019-02-05T12:16:22.865Z,28.13
2019-02-05T12:17:22.875Z,22.50
2019-02-05T12:18:22.811Z,22.50
2019-02-05T12:19:22.787Z,28.13
2019-02-05T12:20:22.792Z,28.13
2019-02-05T12:21:22.731Z,22.50
2019-02-05T12:22:22.707Z,22.50
2019-02-05T12:23:22.676Z,28.13
2019-02-05T12:24:22.650Z,28.13
2019-02-05T12:25:22.633Z,33.75
2019-02-05T12:26:22.625Z,39.38
2019-02-05T12:27:22.571Z,39.38
2019-02-05T12:28:22.541Z,33.75
2019-02-05T12:29:22.517Z,28.13
2019-02-05T12:30:22.489Z,28.13
2019-02-05T12:31:22.460Z,28.13
2019-02-05T12:32:22.433Z,33.75
2019-02-05T12:33:22.407Z,28.13
2019-02-05T12:34:22.379Z,28.13
2019-02-05T12:35:22.353Z,22.50
2019-02-05T12:36:22.327Z,28.13
2019-02-05T12:37:22.298Z,28.13
2019-02-05T12:38:22.270Z,33.75
2019-02-05T12:39:22.251Z,33.75
2019-02-05T12:40:22.218Z,28.13
2019-02-05T12:41:22.191Z,33.75
2019-02-05T12:42:22.163Z,33.75
2019-02-05T12:43:22.138Z,33.75
2019-02-05T12:44:22.114Z,39.38
2019-02-05T12:45:22.083Z,45.00
2019-02-05T12:46:22.056Z,39.38
2019-02-05T12:47:22.029Z,33.75
2019-02-05T12:48:22.003Z,33.75
2019-02-05T12:49:21.976Z,33.75
2019-02-05T12:50:21.950Z,39.38
2019-02-05T12:51:21.922Z,39.38
2019-02-05T12:52:21.895Z,39.38
2019-02-05T12:53:21.870Z,33.75
2019-02-05T12:54:21.841Z,33.75
2019-02-05T12:55:21.813Z,28.13
2019-02-05T12:56:21.787Z,22.50
2019-02-05T12:57:21.763Z,28.13
2019-02-05T12:58:21.733Z,28.13
2019-02-05T12:59:21.708Z,28.13
2019-02-05T13:00:21.679Z,28.13
2019-02-05T13:01:21.657Z,22.50
2019-02-05T13:02:21.626Z,28.13
2019-02-05T13:03:21.600Z,28.13
2019-02-05T13:04:21.576Z,33.75
2019-02-05T13:05:21.552Z,28.13
2019-02-05T13:06:21.523Z,28.13
2019-02-05T13:07:21.493Z,22.50
2019-02-05T13:08:21.466Z,22.50
2019-02-05T13:09:21.443Z,22.50